sensor_id;sensor_type;location;lat;lon;timestamp;temperature;humidity
61145;DHT22;47026;51.208;3.288;2022-12-29T00:02:11;11.10;99.90
61145;DHT22;47026;51.208;3.288;2022-12-29T00:04:36;11.10;99.90
61145;DHT22;47026;51.208;3.288;2022-12-29T00:07:02;11.10;99.90
61145;DHT22;47026;51.208;3.288;2022-12-29T00:09:30;11.10;99.90
61145;DHT22;47026;51.208;3.288;2022-12-29T00:11:55;11.10;99.90
61145;DHT22;47026;51.208;3.288;2022-12-29T00:14:21;11.10;99.90
61145;DHT22;47026;51.208;3.288;2022-12-29T00:17:05;11.10;99.90
61145;DHT22;47026;51.208;3.288;2022-12-29T00:19:31;11.10;99.90
61145;DHT22;47026;51.208;3.288;2022-12-29T00:22:15;11.20;99.90
61145;DHT22;47026;51.208;3.288;2022-12-29T00:24:59;11.20;99.90
61145;DHT22;47026;51.208;3.288;2022-12-29T00:27:34;11.20;99.90
61145;DHT22;47026;51.208;3.288;2022-12-29T00:30:19;11.30;99.90
61145;DHT22;47026;51.208;3.288;2022-12-29T00:33:11;11.30;99.90
61145;DHT22;47026;51.208;3.288;2022-12-29T00:36:00;11.20;99.90
61145;DHT22;47026;51.208;3.288;2022-12-29T00:38:27;11.10;99.90
61145;DHT22;47026;51.208;3.288;2022-12-29T00:41:12;11.10;99.90
61145;DHT22;47026;51.208;3.288;2022-12-29T00:43:56;11.10;99.90
61145;DHT22;47026;51.208;3.288;2022-12-29T00:46:32;11.20;99.90
61145;DHT22;47026;51.208;3.288;2022-12-29T00:48:57;11.20;99.90
61145;DHT22;47026;51.208;3.288;2022-12-29T00:51:42;11.20;99.90
61145;DHT22;47026;51.208;3.288;2022-12-29T00:54:08;11.20;99.90
61145;DHT22;47026;51.208;3.288;2022-12-29T00:56:33;11.30;99.90
61145;DHT22;47026;51.208;3.288;2022-12-29T00:59:00;11.30;99.90
61145;DHT22;47026;51.208;3.288;2022-12-29T01:01:26;11.30;99.90
61145;DHT22;47026;51.208;3.288;2022-12-29T01:03:51;11.30;99.90
61145;DHT22;47026;51.208;3.288;2022-12-29T01:06:17;11.40;99.90
61145;DHT22;47026;51.208;3.288;2022-12-29T01:08:43;11.30;99.90
61145;DHT22;47026;51.208;3.288;2022-12-29T01:11:10;11.30;99.90
61145;DHT22;47026;51.208;3.288;2022-12-29T01:13:36;11.20;99.90
61145;DHT22;47026;51.208;3.288;2022-12-29T01:16:03;11.10;99.90
61145;DHT22;47026;51.208;3.288;2022-12-29T01:18:29;10.90;99.90
61145;DHT22;47026;51.208;3.288;2022-12-29T01:21:02;10.80;99.90
61145;DHT22;47026;51.208;3.288;2022-12-29T01:23:27;10.70;99.90
61145;DHT22;47026;51.208;3.288;2022-12-29T01:25:53;10.60;99.90
61145;DHT22;47026;51.208;3.288;2022-12-29T01:28:19;10.50;99.90
61145;DHT22;47026;51.208;3.288;2022-12-29T01:30:44;10.40;99.90
61145;DHT22;47026;51.208;3.288;2022-12-29T01:33:10;10.40;99.90
61145;DHT22;47026;51.208;3.288;2022-12-29T01:35:36;10.30;99.90
61145;DHT22;47026;51.208;3.288;2022-12-29T01:38:01;10.40;99.90
61145;DHT22;47026;51.208;3.288;2022-12-29T01:40:27;10.40;99.90
61145;DHT22;47026;51.208;3.288;2022-12-29T01:42:53;10.40;99.90
61145;DHT22;47026;51.208;3.288;2022-12-29T01:45:19;10.40;99.90
61145;DHT22;47026;51.208;3.288;2022-12-29T01:52:42;10.40;99.90
61145;DHT22;47026;51.208;3.288;2022-12-29T01:55:10;10.50;99.90
61145;DHT22;47026;51.208;3.288;2022-12-29T01:57:37;10.50;99.90
61145;DHT22;47026;51.208;3.288;2022-12-29T02:00:05;10.60;99.90
61145;DHT22;47026;51.208;3.288;2022-12-29T02:02:33;10.60;99.90
61145;DHT22;47026;51.208;3.288;2022-12-29T02:04:59;10.70;99.90
61145;DHT22;47026;51.208;3.288;2022-12-29T02:07:28;10.80;99.90
61145;DHT22;47026;51.208;3.288;2022-12-29T02:09:54;10.90;99.90
61145;DHT22;47026;51.208;3.288;2022-12-29T02:12:20;10.90;99.90
61145;DHT22;47026;51.208;3.288;2022-12-29T02:14:47;11.00;99.90
61145;DHT22;47026;51.208;3.288;2022-12-29T02:17:21;11.20;99.90
61145;DHT22;47026;51.208;3.288;2022-12-29T02:25:04;11.10;99.90
61145;DHT22;47026;51.208;3.288;2022-12-29T02:32:52;11.10;99.90
61145;DHT22;47026;51.208;3.288;2022-12-29T02:35:23;11.10;99.90
61145;DHT22;47026;51.208;3.288;2022-12-29T02:37:56;11.10;99.90
61145;DHT22;47026;51.208;3.288;2022-12-29T02:40:26;11.00;99.90
61145;DHT22;47026;51.208;3.288;2022-12-29T02:43:03;10.90;99.90
61145;DHT22;47026;51.208;3.288;2022-12-29T02:48:20;10.80;99.90
61145;DHT22;47026;51.208;3.288;2022-12-29T02:51:04;10.70;99.90
61145;DHT22;47026;51.208;3.288;2022-12-29T02:53:33;10.70;99.90
61145;DHT22;47026;51.208;3.288;2022-12-29T02:56:18;10.50;99.90
61145;DHT22;47026;51.208;3.288;2022-12-29T02:58:44;10.50;99.90
61145;DHT22;47026;51.208;3.288;2022-12-29T03:11:32;10.40;99.90
61145;DHT22;47026;51.208;3.288;2022-12-29T03:14:18;10.40;99.90
61145;DHT22;47026;51.208;3.288;2022-12-29T03:17:07;10.50;99.90
61145;DHT22;47026;51.208;3.288;2022-12-29T03:19:39;10.50;99.90
61145;DHT22;47026;51.208;3.288;2022-12-29T03:22:07;10.50;99.90
61145;DHT22;47026;51.208;3.288;2022-12-29T03:25:03;10.60;99.90
61145;DHT22;47026;51.208;3.288;2022-12-29T03:27:31;10.60;99.90
61145;DHT22;47026;51.208;3.288;2022-12-29T03:29:59;10.70;99.90
61145;DHT22;47026;51.208;3.288;2022-12-29T03:32:27;10.70;99.90
61145;DHT22;47026;51.208;3.288;2022-12-29T03:34:54;10.60;99.90
61145;DHT22;47026;51.208;3.288;2022-12-29T03:37:22;10.60;99.90
61145;DHT22;47026;51.208;3.288;2022-12-29T03:39:49;10.60;99.90
61145;DHT22;47026;51.208;3.288;2022-12-29T03:42:17;10.60;99.90
61145;DHT22;47026;51.208;3.288;2022-12-29T03:44:44;10.70;99.90
61145;DHT22;47026;51.208;3.288;2022-12-29T03:47:10;10.70;99.90
61145;DHT22;47026;51.208;3.288;2022-12-29T03:49:37;10.70;99.90
61145;DHT22;47026;51.208;3.288;2022-12-29T03:52:02;10.70;99.90
61145;DHT22;47026;51.208;3.288;2022-12-29T03:54:29;10.80;99.90
61145;DHT22;47026;51.208;3.288;2022-12-29T03:56:55;10.80;99.90
61145;DHT22;47026;51.208;3.288;2022-12-29T03:59:20;10.90;99.90
61145;DHT22;47026;51.208;3.288;2022-12-29T04:01:46;10.90;99.90
61145;DHT22;47026;51.208;3.288;2022-12-29T04:04:12;10.80;99.90
61145;DHT22;47026;51.208;3.288;2022-12-29T04:06:38;10.80;99.90
61145;DHT22;47026;51.208;3.288;2022-12-29T04:09:03;10.70;99.90
61145;DHT22;47026;51.208;3.288;2022-12-29T04:11:29;10.80;99.90
61145;DHT22;47026;51.208;3.288;2022-12-29T04:13:55;10.80;99.90
61145;DHT22;47026;51.208;3.288;2022-12-29T04:16:20;10.90;99.90
61145;DHT22;47026;51.208;3.288;2022-12-29T04:18:46;10.80;99.90
61145;DHT22;47026;51.208;3.288;2022-12-29T04:21:12;10.80;99.90
61145;DHT22;47026;51.208;3.288;2022-12-29T04:23:37;10.80;99.90
61145;DHT22;47026;51.208;3.288;2022-12-29T04:26:04;10.90;99.90
61145;DHT22;47026;51.208;3.288;2022-12-29T04:28:31;10.90;99.90
61145;DHT22;47026;51.208;3.288;2022-12-29T04:30:57;10.80;99.90
61145;DHT22;47026;51.208;3.288;2022-12-29T04:33:23;10.80;99.90
61145;DHT22;47026;51.208;3.288;2022-12-29T04:35:48;10.70;99.90
61145;DHT22;47026;51.208;3.288;2022-12-29T04:38:14;10.70;99.90
61145;DHT22;47026;51.208;3.288;2022-12-29T04:40:41;10.60;99.90
61145;DHT22;47026;51.208;3.288;2022-12-29T04:43:07;10.60;99.90
61145;DHT22;47026;51.208;3.288;2022-12-29T04:45:33;10.60;99.90
61145;DHT22;47026;51.208;3.288;2022-12-29T04:47:59;10.60;99.90
61145;DHT22;47026;51.208;3.288;2022-12-29T04:50:25;10.70;99.90
61145;DHT22;47026;51.208;3.288;2022-12-29T04:52:51;10.70;99.90
61145;DHT22;47026;51.208;3.288;2022-12-29T04:55:17;10.80;99.90
61145;DHT22;47026;51.208;3.288;2022-12-29T04:57:42;10.80;99.90
61145;DHT22;47026;51.208;3.288;2022-12-29T05:00:09;10.80;99.90
61145;DHT22;47026;51.208;3.288;2022-12-29T05:02:35;10.90;99.90
61145;DHT22;47026;51.208;3.288;2022-12-29T05:05:01;11.00;99.90
61145;DHT22;47026;51.208;3.288;2022-12-29T05:07:27;10.90;99.90
61145;DHT22;47026;51.208;3.288;2022-12-29T05:09:53;10.90;99.90
61145;DHT22;47026;51.208;3.288;2022-12-29T05:12:18;10.80;99.90
61145;DHT22;47026;51.208;3.288;2022-12-29T05:14:44;10.80;99.90
61145;DHT22;47026;51.208;3.288;2022-12-29T05:17:10;10.80;99.90
61145;DHT22;47026;51.208;3.288;2022-12-29T05:19:35;10.70;99.90
61145;DHT22;47026;51.208;3.288;2022-12-29T05:22:01;10.80;99.90
61145;DHT22;47026;51.208;3.288;2022-12-29T05:24:27;10.80;99.90
61145;DHT22;47026;51.208;3.288;2022-12-29T05:26:53;10.80;99.90
61145;DHT22;47026;51.208;3.288;2022-12-29T05:29:18;10.80;99.90
61145;DHT22;47026;51.208;3.288;2022-12-29T05:31:44;10.80;99.90
61145;DHT22;47026;51.208;3.288;2022-12-29T05:34:13;10.70;99.90
61145;DHT22;47026;51.208;3.288;2022-12-29T05:36:38;10.70;99.90
61145;DHT22;47026;51.208;3.288;2022-12-29T05:39:04;10.60;99.90
61145;DHT22;47026;51.208;3.288;2022-12-29T05:41:30;10.50;99.90
61145;DHT22;47026;51.208;3.288;2022-12-29T05:43:55;10.50;99.90
61145;DHT22;47026;51.208;3.288;2022-12-29T05:46:21;10.50;99.90
61145;DHT22;47026;51.208;3.288;2022-12-29T05:48:47;10.40;99.90
61145;DHT22;47026;51.208;3.288;2022-12-29T05:51:12;10.30;99.90
61145;DHT22;47026;51.208;3.288;2022-12-29T05:53:38;10.30;99.90
61145;DHT22;47026;51.208;3.288;2022-12-29T05:56:04;10.40;99.90
61145;DHT22;47026;51.208;3.288;2022-12-29T05:58:30;10.40;99.90
61145;DHT22;47026;51.208;3.288;2022-12-29T06:00:55;10.40;99.90
61145;DHT22;47026;51.208;3.288;2022-12-29T06:03:21;10.40;99.90
61145;DHT22;47026;51.208;3.288;2022-12-29T06:05:47;10.50;99.90
61145;DHT22;47026;51.208;3.288;2022-12-29T06:08:12;10.50;99.90
61145;DHT22;47026;51.208;3.288;2022-12-29T06:10:38;10.50;99.90
61145;DHT22;47026;51.208;3.288;2022-12-29T06:13:04;10.50;99.90
61145;DHT22;47026;51.208;3.288;2022-12-29T06:15:33;10.40;99.90
61145;DHT22;47026;51.208;3.288;2022-12-29T06:17:59;10.50;99.90
61145;DHT22;47026;51.208;3.288;2022-12-29T06:20:25;10.50;99.90
61145;DHT22;47026;51.208;3.288;2022-12-29T06:22:51;10.50;99.90
61145;DHT22;47026;51.208;3.288;2022-12-29T06:25:17;10.50;99.90
61145;DHT22;47026;51.208;3.288;2022-12-29T06:27:42;10.60;99.90
61145;DHT22;47026;51.208;3.288;2022-12-29T06:30:08;10.60;99.90
61145;DHT22;47026;51.208;3.288;2022-12-29T06:32:35;10.60;99.90
61145;DHT22;47026;51.208;3.288;2022-12-29T06:35:01;10.60;99.90
61145;DHT22;47026;51.208;3.288;2022-12-29T06:37:26;10.60;99.90
61145;DHT22;47026;51.208;3.288;2022-12-29T06:39:52;10.50;99.90
61145;DHT22;47026;51.208;3.288;2022-12-29T06:42:18;10.50;99.90
61145;DHT22;47026;51.208;3.288;2022-12-29T06:44:43;10.50;99.90
61145;DHT22;47026;51.208;3.288;2022-12-29T06:47:09;10.40;99.90
61145;DHT22;47026;51.208;3.288;2022-12-29T06:49:35;10.40;99.90
61145;DHT22;47026;51.208;3.288;2022-12-29T06:52:01;10.40;99.90
61145;DHT22;47026;51.208;3.288;2022-12-29T06:54:30;10.40;99.90
61145;DHT22;47026;51.208;3.288;2022-12-29T06:56:55;10.40;99.90
61145;DHT22;47026;51.208;3.288;2022-12-29T06:59:21;10.50;99.90
61145;DHT22;47026;51.208;3.288;2022-12-29T07:01:47;10.50;99.90
61145;DHT22;47026;51.208;3.288;2022-12-29T07:04:12;10.60;99.90
61145;DHT22;47026;51.208;3.288;2022-12-29T07:06:38;10.50;99.90
61145;DHT22;47026;51.208;3.288;2022-12-29T07:09:06;10.50;99.90
61145;DHT22;47026;51.208;3.288;2022-12-29T07:11:32;10.60;99.90
61145;DHT22;47026;51.208;3.288;2022-12-29T07:13:58;10.60;99.90
61145;DHT22;47026;51.208;3.288;2022-12-29T07:16:24;10.60;99.90
61145;DHT22;47026;51.208;3.288;2022-12-29T07:18:50;10.70;99.90
61145;DHT22;47026;51.208;3.288;2022-12-29T07:21:16;10.70;99.90
61145;DHT22;47026;51.208;3.288;2022-12-29T07:23:42;10.70;99.90
61145;DHT22;47026;51.208;3.288;2022-12-29T07:26:09;10.70;99.90
61145;DHT22;47026;51.208;3.288;2022-12-29T07:28:35;10.70;99.90
61145;DHT22;47026;51.208;3.288;2022-12-29T07:31:01;10.70;99.90
61145;DHT22;47026;51.208;3.288;2022-12-29T07:33:30;10.70;99.90
61145;DHT22;47026;51.208;3.288;2022-12-29T07:35:55;10.70;99.90
61145;DHT22;47026;51.208;3.288;2022-12-29T07:38:21;10.50;99.90
61145;DHT22;47026;51.208;3.288;2022-12-29T07:40:47;10.20;99.90
61145;DHT22;47026;51.208;3.288;2022-12-29T07:43:13;10.10;99.90
61145;DHT22;47026;51.208;3.288;2022-12-29T07:45:38;10.10;99.90
61145;DHT22;47026;51.208;3.288;2022-12-29T07:48:04;10.00;99.90
61145;DHT22;47026;51.208;3.288;2022-12-29T07:50:33;9.80;99.90
61145;DHT22;47026;51.208;3.288;2022-12-29T07:52:59;9.70;99.90
61145;DHT22;47026;51.208;3.288;2022-12-29T07:55:24;9.60;99.90
61145;DHT22;47026;51.208;3.288;2022-12-29T07:57:52;9.50;99.90
61145;DHT22;47026;51.208;3.288;2022-12-29T08:00:18;9.50;99.90
61145;DHT22;47026;51.208;3.288;2022-12-29T08:02:44;9.30;99.90
61145;DHT22;47026;51.208;3.288;2022-12-29T08:05:09;9.30;99.90
61145;DHT22;47026;51.208;3.288;2022-12-29T08:07:35;9.30;99.90
61145;DHT22;47026;51.208;3.288;2022-12-29T08:10:01;9.30;99.90
61145;DHT22;47026;51.208;3.288;2022-12-29T08:12:26;9.30;99.90
61145;DHT22;47026;51.208;3.288;2022-12-29T08:14:52;9.30;99.90
61145;DHT22;47026;51.208;3.288;2022-12-29T08:17:18;9.30;99.90
61145;DHT22;47026;51.208;3.288;2022-12-29T08:19:44;9.30;99.90
61145;DHT22;47026;51.208;3.288;2022-12-29T08:22:09;9.30;99.90
61145;DHT22;47026;51.208;3.288;2022-12-29T08:24:35;9.30;99.90
61145;DHT22;47026;51.208;3.288;2022-12-29T08:27:01;9.40;99.90
61145;DHT22;47026;51.208;3.288;2022-12-29T08:29:27;9.40;99.90
61145;DHT22;47026;51.208;3.288;2022-12-29T08:31:53;9.30;99.90
61145;DHT22;47026;51.208;3.288;2022-12-29T08:34:18;9.40;99.90
61145;DHT22;47026;51.208;3.288;2022-12-29T08:36:44;9.40;99.90
61145;DHT22;47026;51.208;3.288;2022-12-29T08:39:10;9.40;99.90
61145;DHT22;47026;51.208;3.288;2022-12-29T08:41:35;9.50;99.90
61145;DHT22;47026;51.208;3.288;2022-12-29T08:44:01;9.40;99.90
61145;DHT22;47026;51.208;3.288;2022-12-29T08:46:27;9.50;99.90
61145;DHT22;47026;51.208;3.288;2022-12-29T08:48:53;9.50;99.90
61145;DHT22;47026;51.208;3.288;2022-12-29T08:51:18;9.50;99.90
61145;DHT22;47026;51.208;3.288;2022-12-29T08:53:44;9.50;99.90
61145;DHT22;47026;51.208;3.288;2022-12-29T08:56:10;9.60;99.90
61145;DHT22;47026;51.208;3.288;2022-12-29T08:58:36;9.70;99.90
61145;DHT22;47026;51.208;3.288;2022-12-29T09:01:02;9.70;99.90
61145;DHT22;47026;51.208;3.288;2022-12-29T09:03:28;9.70;99.90
61145;DHT22;47026;51.208;3.288;2022-12-29T09:05:54;9.70;99.90
61145;DHT22;47026;51.208;3.288;2022-12-29T09:08:20;9.80;99.90
61145;DHT22;47026;51.208;3.288;2022-12-29T09:10:46;9.80;99.90
61145;DHT22;47026;51.208;3.288;2022-12-29T09:13:12;9.80;99.90
61145;DHT22;47026;51.208;3.288;2022-12-29T09:15:38;9.90;99.90
61145;DHT22;47026;51.208;3.288;2022-12-29T09:18:04;9.90;99.90
61145;DHT22;47026;51.208;3.288;2022-12-29T09:20:30;10.00;99.90
61145;DHT22;47026;51.208;3.288;2022-12-29T09:22:56;10.00;99.90
61145;DHT22;47026;51.208;3.288;2022-12-29T09:25:22;10.10;99.90
61145;DHT22;47026;51.208;3.288;2022-12-29T09:27:50;10.20;99.90
61145;DHT22;47026;51.208;3.288;2022-12-29T09:30:17;10.20;99.90
61145;DHT22;47026;51.208;3.288;2022-12-29T09:32:43;10.50;99.90
61145;DHT22;47026;51.208;3.288;2022-12-29T09:35:09;10.70;99.90
61145;DHT22;47026;51.208;3.288;2022-12-29T09:37:35;10.90;99.90
61145;DHT22;47026;51.208;3.288;2022-12-29T09:40:01;11.00;99.90
61145;DHT22;47026;51.208;3.288;2022-12-29T09:42:32;11.10;99.90
61145;DHT22;47026;51.208;3.288;2022-12-29T09:45:04;11.10;99.90
61145;DHT22;47026;51.208;3.288;2022-12-29T09:47:30;11.10;99.90
61145;DHT22;47026;51.208;3.288;2022-12-29T09:50:00;10.90;99.90
61145;DHT22;47026;51.208;3.288;2022-12-29T09:52:37;10.80;99.90
61145;DHT22;47026;51.208;3.288;2022-12-29T09:55:15;10.60;99.90
61145;DHT22;47026;51.208;3.288;2022-12-29T10:00:12;11.30;99.90
61145;DHT22;47026;51.208;3.288;2022-12-29T10:08:06;10.80;99.90
61145;DHT22;47026;51.208;3.288;2022-12-29T10:10:38;10.70;99.90
61145;DHT22;47026;51.208;3.288;2022-12-29T10:13:09;10.60;99.90
61145;DHT22;47026;51.208;3.288;2022-12-29T10:25:47;10.60;99.90
61145;DHT22;47026;51.208;3.288;2022-12-29T10:28:20;10.50;99.90
61145;DHT22;47026;51.208;3.288;2022-12-29T10:30:47;10.50;99.90
61145;DHT22;47026;51.208;3.288;2022-12-29T10:33:15;10.60;99.90
61145;DHT22;47026;51.208;3.288;2022-12-29T10:35:41;10.60;99.90
61145;DHT22;47026;51.208;3.288;2022-12-29T10:43:42;10.80;99.90
61145;DHT22;47026;51.208;3.288;2022-12-29T10:46:12;10.80;99.90
61145;DHT22;47026;51.208;3.288;2022-12-29T10:48:39;10.80;99.90
61145;DHT22;47026;51.208;3.288;2022-12-29T10:51:05;10.80;99.90
61145;DHT22;47026;51.208;3.288;2022-12-29T10:53:38;10.80;99.90
61145;DHT22;47026;51.208;3.288;2022-12-29T10:56:09;11.00;99.90
61145;DHT22;47026;51.208;3.288;2022-12-29T10:58:39;11.10;99.90
61145;DHT22;47026;51.208;3.288;2022-12-29T11:01:07;11.20;99.90
61145;DHT22;47026;51.208;3.288;2022-12-29T11:03:38;11.20;99.90
61145;DHT22;47026;51.208;3.288;2022-12-29T11:06:08;11.10;99.90
61145;DHT22;47026;51.208;3.288;2022-12-29T11:08:36;11.10;99.90
61145;DHT22;47026;51.208;3.288;2022-12-29T11:11:04;11.10;99.90
61145;DHT22;47026;51.208;3.288;2022-12-29T11:13:31;11.10;99.90
61145;DHT22;47026;51.208;3.288;2022-12-29T11:15:57;10.90;99.90
61145;DHT22;47026;51.208;3.288;2022-12-29T11:18:23;10.90;99.90
61145;DHT22;47026;51.208;3.288;2022-12-29T11:20:54;10.80;99.90
61145;DHT22;47026;51.208;3.288;2022-12-29T11:23:24;10.70;99.90
61145;DHT22;47026;51.208;3.288;2022-12-29T11:28:38;10.10;99.90
61145;DHT22;47026;51.208;3.288;2022-12-29T11:31:04;10.00;99.90
61145;DHT22;47026;51.208;3.288;2022-12-29T11:33:32;10.00;99.90
61145;DHT22;47026;51.208;3.288;2022-12-29T11:36:01;9.90;99.90
61145;DHT22;47026;51.208;3.288;2022-12-29T11:38:33;10.00;99.90
61145;DHT22;47026;51.208;3.288;2022-12-29T11:40:59;10.00;99.90
61145;DHT22;47026;51.208;3.288;2022-12-29T11:43:36;10.20;99.90
61145;DHT22;47026;51.208;3.288;2022-12-29T11:46:02;10.20;99.90
61145;DHT22;47026;51.208;3.288;2022-12-29T11:48:29;10.20;99.90
61145;DHT22;47026;51.208;3.288;2022-12-29T11:50:58;10.20;99.90
61145;DHT22;47026;51.208;3.288;2022-12-29T11:53:28;10.20;99.90
61145;DHT22;47026;51.208;3.288;2022-12-29T11:56:00;10.30;99.90
61145;DHT22;47026;51.208;3.288;2022-12-29T11:58:30;10.30;99.90
61145;DHT22;47026;51.208;3.288;2022-12-29T12:01:02;10.30;99.90
61145;DHT22;47026;51.208;3.288;2022-12-29T12:03:29;10.40;99.90
61145;DHT22;47026;51.208;3.288;2022-12-29T12:05:57;10.80;99.90
61145;DHT22;47026;51.208;3.288;2022-12-29T12:13:33;11.10;99.90
61145;DHT22;47026;51.208;3.288;2022-12-29T12:16:03;11.20;99.90
61145;DHT22;47026;51.208;3.288;2022-12-29T12:21:13;11.20;99.90
61145;DHT22;47026;51.208;3.288;2022-12-29T12:23:44;11.00;99.90
61145;DHT22;47026;51.208;3.288;2022-12-29T12:29:22;10.90;99.90
61145;DHT22;47026;51.208;3.288;2022-12-29T12:31:35;11.00;99.90
61145;DHT22;47026;51.208;3.288;2022-12-29T12:34:05;10.80;99.90
61145;DHT22;47026;51.208;3.288;2022-12-29T12:36:40;10.80;99.90
61145;DHT22;47026;51.208;3.288;2022-12-29T12:39:11;10.70;99.90
61145;DHT22;47026;51.208;3.288;2022-12-29T12:44:10;10.40;99.90
61145;DHT22;47026;51.208;3.288;2022-12-29T12:52:22;10.20;99.90
61145;DHT22;47026;51.208;3.288;2022-12-29T13:00:04;10.30;99.90
61145;DHT22;47026;51.208;3.288;2022-12-29T13:07:34;10.20;99.90
61145;DHT22;47026;51.208;3.288;2022-12-29T13:12:36;10.20;99.90
61145;DHT22;47026;51.208;3.288;2022-12-29T13:20:18;10.00;99.90
61145;DHT22;47026;51.208;3.288;2022-12-29T13:22:48;9.90;99.90
61145;DHT22;47026;51.208;3.288;2022-12-29T13:30:45;9.90;99.90
61145;DHT22;47026;51.208;3.288;2022-12-29T13:33:24;9.80;99.90
61145;DHT22;47026;51.208;3.288;2022-12-29T13:35:59;9.80;99.90
61145;DHT22;47026;51.208;3.288;2022-12-29T13:41:16;10.00;99.90
61145;DHT22;47026;51.208;3.288;2022-12-29T13:43:44;9.90;99.90
61145;DHT22;47026;51.208;3.288;2022-12-29T13:46:20;9.90;99.90
61145;DHT22;47026;51.208;3.288;2022-12-29T13:48:49;9.90;99.90
61145;DHT22;47026;51.208;3.288;2022-12-29T13:51:16;9.80;99.90
61145;DHT22;47026;51.208;3.288;2022-12-29T13:54:30;9.70;99.90
61145;DHT22;47026;51.208;3.288;2022-12-29T13:57:13;9.80;99.90
61145;DHT22;47026;51.208;3.288;2022-12-29T13:59:23;9.60;99.90
61145;DHT22;47026;51.208;3.288;2022-12-29T14:02:09;9.40;99.90
61145;DHT22;47026;51.208;3.288;2022-12-29T14:04:40;9.20;99.90
61145;DHT22;47026;51.208;3.288;2022-12-29T14:07:20;9.20;99.90
61145;DHT22;47026;51.208;3.288;2022-12-29T14:09:47;9.10;99.90
61145;DHT22;47026;51.208;3.288;2022-12-29T14:12:20;9.10;99.90
61145;DHT22;47026;51.208;3.288;2022-12-29T14:14:47;9.00;99.90
61145;DHT22;47026;51.208;3.288;2022-12-29T14:17:16;9.10;99.90
61145;DHT22;47026;51.208;3.288;2022-12-29T14:19:44;9.10;99.90
61145;DHT22;47026;51.208;3.288;2022-12-29T14:22:10;9.10;99.90
61145;DHT22;47026;51.208;3.288;2022-12-29T14:24:40;9.30;99.90
61145;DHT22;47026;51.208;3.288;2022-12-29T14:34:48;9.00;99.90
61145;DHT22;47026;51.208;3.288;2022-12-29T14:37:30;9.10;99.90
61145;DHT22;47026;51.208;3.288;2022-12-29T14:42:28;9.00;99.90
61145;DHT22;47026;51.208;3.288;2022-12-29T14:47:41;9.00;99.90
61145;DHT22;47026;51.208;3.288;2022-12-29T14:52:41;9.10;99.90
61145;DHT22;47026;51.208;3.288;2022-12-29T14:57:42;9.20;99.90
61145;DHT22;47026;51.208;3.288;2022-12-29T15:00:22;9.10;99.90
61145;DHT22;47026;51.208;3.288;2022-12-29T15:02:50;9.00;99.90
61145;DHT22;47026;51.208;3.288;2022-12-29T15:05:23;9.00;99.90
61145;DHT22;47026;51.208;3.288;2022-12-29T15:07:50;9.00;99.90
61145;DHT22;47026;51.208;3.288;2022-12-29T15:10:16;9.00;99.90
61145;DHT22;47026;51.208;3.288;2022-12-29T15:13:04;9.00;99.90
61145;DHT22;47026;51.208;3.288;2022-12-29T15:15:35;9.10;99.90
61145;DHT22;47026;51.208;3.288;2022-12-29T15:18:14;9.10;99.90
61145;DHT22;47026;51.208;3.288;2022-12-29T15:20:40;9.10;99.90
61145;DHT22;47026;51.208;3.288;2022-12-29T15:23:11;9.10;99.90
61145;DHT22;47026;51.208;3.288;2022-12-29T15:25:45;9.10;99.90
61145;DHT22;47026;51.208;3.288;2022-12-29T15:28:12;9.00;99.90
61145;DHT22;47026;51.208;3.288;2022-12-29T15:30:49;8.80;99.90
61145;DHT22;47026;51.208;3.288;2022-12-29T15:33:19;8.70;99.90
61145;DHT22;47026;51.208;3.288;2022-12-29T15:35:49;8.50;99.90
61145;DHT22;47026;51.208;3.288;2022-12-29T15:38:16;8.60;99.90
61145;DHT22;47026;51.208;3.288;2022-12-29T15:40:45;8.60;99.90
61145;DHT22;47026;51.208;3.288;2022-12-29T15:43:27;8.70;99.90
61145;DHT22;47026;51.208;3.288;2022-12-29T15:45:55;8.60;99.90
61145;DHT22;47026;51.208;3.288;2022-12-29T15:48:22;8.60;99.90
61145;DHT22;47026;51.208;3.288;2022-12-29T15:50:48;8.60;99.90
61145;DHT22;47026;51.208;3.288;2022-12-29T15:53:25;8.60;99.90
61145;DHT22;47026;51.208;3.288;2022-12-29T15:55:57;8.50;99.90
61145;DHT22;47026;51.208;3.288;2022-12-29T15:58:26;8.50;99.90
61145;DHT22;47026;51.208;3.288;2022-12-29T16:00:53;8.50;99.90
61145;DHT22;47026;51.208;3.288;2022-12-29T16:03:20;8.40;99.90
61145;DHT22;47026;51.208;3.288;2022-12-29T16:05:51;8.40;99.90
61145;DHT22;47026;51.208;3.288;2022-12-29T16:10:49;8.40;99.90
61145;DHT22;47026;51.208;3.288;2022-12-29T16:13:19;8.40;99.90
61145;DHT22;47026;51.208;3.288;2022-12-29T16:15:46;8.30;99.90
61145;DHT22;47026;51.208;3.288;2022-12-29T16:18:23;8.30;99.90
61145;DHT22;47026;51.208;3.288;2022-12-29T16:20:50;8.30;99.90
61145;DHT22;47026;51.208;3.288;2022-12-29T16:23:18;8.20;99.90
61145;DHT22;47026;51.208;3.288;2022-12-29T16:25:45;8.20;99.90
61145;DHT22;47026;51.208;3.288;2022-12-29T16:28:33;8.10;99.90
61145;DHT22;47026;51.208;3.288;2022-12-29T16:31:03;8.10;99.90
61145;DHT22;47026;51.208;3.288;2022-12-29T16:33:36;8.10;99.90
61145;DHT22;47026;51.208;3.288;2022-12-29T16:36:03;8.10;99.90
61145;DHT22;47026;51.208;3.288;2022-12-29T16:38:46;8.10;99.90
61145;DHT22;47026;51.208;3.288;2022-12-29T16:41:12;8.00;99.90
61145;DHT22;47026;51.208;3.288;2022-12-29T16:44:10;8.10;99.90
61145;DHT22;47026;51.208;3.288;2022-12-29T16:46:37;8.00;99.90
61145;DHT22;47026;51.208;3.288;2022-12-29T16:49:13;8.00;99.90
61145;DHT22;47026;51.208;3.288;2022-12-29T16:51:40;8.00;99.90
61145;DHT22;47026;51.208;3.288;2022-12-29T16:54:05;8.00;99.90
61145;DHT22;47026;51.208;3.288;2022-12-29T16:56:33;8.00;99.90
61145;DHT22;47026;51.208;3.288;2022-12-29T17:01:29;8.00;99.90
61145;DHT22;47026;51.208;3.288;2022-12-29T17:03:57;8.00;99.90
61145;DHT22;47026;51.208;3.288;2022-12-29T17:06:23;8.00;99.90
61145;DHT22;47026;51.208;3.288;2022-12-29T17:08:50;8.00;99.90
61145;DHT22;47026;51.208;3.288;2022-12-29T17:11:23;8.00;99.90
61145;DHT22;47026;51.208;3.288;2022-12-29T17:14:27;8.00;99.90
61145;DHT22;47026;51.208;3.288;2022-12-29T17:16:55;8.00;99.90
61145;DHT22;47026;51.208;3.288;2022-12-29T17:19:25;8.00;99.90
61145;DHT22;47026;51.208;3.288;2022-12-29T17:21:52;8.10;99.90
61145;DHT22;47026;51.208;3.288;2022-12-29T17:24:18;8.10;99.90
61145;DHT22;47026;51.208;3.288;2022-12-29T17:26:48;8.20;99.90
61145;DHT22;47026;51.208;3.288;2022-12-29T17:29:57;8.20;99.90
61145;DHT22;47026;51.208;3.288;2022-12-29T17:32:03;8.30;99.90
61145;DHT22;47026;51.208;3.288;2022-12-29T17:34:29;8.10;99.90
61145;DHT22;47026;51.208;3.288;2022-12-29T17:36:56;8.20;99.90
61145;DHT22;47026;51.208;3.288;2022-12-29T17:39:22;8.20;99.90
61145;DHT22;47026;51.208;3.288;2022-12-29T17:41:47;8.30;99.90
61145;DHT22;47026;51.208;3.288;2022-12-29T17:44:17;8.40;99.90
61145;DHT22;47026;51.208;3.288;2022-12-29T17:46:43;8.30;99.90
61145;DHT22;47026;51.208;3.288;2022-12-29T17:49:13;8.50;99.90